Time;durP1;ratioP1;P1;durP2;ratioP2;P2;SDS_P1;SDS_P2;PMS_P1;PMS_P2;Temp;Humidity;BMP_temperature;BMP_pressure;BME280_temperature;BME280_humidity;BME280_pressure;Samples;Min_cycle;Max_cycle;Signal;HPM_P1;HPM_P2
2023/01/20 00:01:03;;;;;;;73.43;36.55;;;;;;;-0.55;100.00;101070.53;5115733;28;20038;-91
2023/01/20 00:03:28;;;;;;;66.13;33.40;;;;;;;-0.59;100.00;101069.75;5116102;28;20047;-89
2023/01/20 00:05:54;;;;;;;68.22;35.05;;;;;;;-0.78;100.00;101053.09;5116031;28;20110;-91
2023/01/20 00:08:19;;;;;;;63.97;34.25;;;;;;;-0.64;100.00;101086.72;5116158;28;20107;-90
2023/01/20 00:10:56;;;;;;;68.15;35.05;;;;;;;-1.19;100.00;101002.91;5123129;22;20051;-91
2023/01/20 00:13:32;;;;;;;70.97;35.75;;;;;;;-1.11;100.00;101006.19;5135261;27;20386;-90
2023/01/20 00:15:57;;;;;;;62.28;31.70;;;;;;;-1.30;100.00;100972.63;5136101;27;20019;-88
2023/01/20 00:18:22;;;;;;;60.85;30.52;;;;;;;-1.01;100.00;101024.66;5117410;27;20508;-91
2023/01/20 00:20:48;;;;;;;54.55;30.63;;;;;;;-1.70;100.00;100908.94;5135787;27;20413;-90
2023/01/20 00:23:13;;;;;;;50.58;26.65;;;;;;;-0.84;100.00;101050.63;5135456;27;20050;-88
2023/01/20 00:25:38;;;;;;;47.22;25.60;;;;;;;-0.61;100.00;101090.91;5134563;27;20027;-89
2023/01/20 00:28:04;;;;;;;48.38;25.77;;;;;;;-0.54;100.00;101115.34;5116047;27;20039;-88
2023/01/20 00:30:30;;;;;;;44.65;24.75;;;;;;;-0.70;100.00;101073.25;5135472;27;20518;-89
2023/01/20 00:32:55;;;;;;;43.72;24.30;;;;;;;-0.78;100.00;101062.41;5134929;27;20094;-89
2023/01/20 00:35:21;;;;;;;51.30;26.35;;;;;;;-0.59;100.00;101099.31;5138122;27;20386;-88
2023/01/20 00:37:46;;;;;;;46.03;24.63;;;;;;;-1.06;100.00;101028.94;5136458;27;20052;-92
2023/01/20 00:40:11;;;;;;;52.72;26.20;;;;;;;-0.51;100.00;101120.38;5134936;27;20030;-90
2023/01/20 00:42:37;;;;;;;51.03;26.15;;;;;;;-0.98;100.00;101040.69;5117249;27;20023;-90
2023/01/20 00:45:02;;;;;;;50.13;26.40;;;;;;;-0.47;100.00;101114.41;5134637;27;20094;-89
2023/01/20 00:47:28;;;;;;;51.75;27.20;;;;;;;-0.44;100.00;101113.53;5135019;27;20034;-88
2023/01/20 00:49:53;;;;;;;54.60;27.90;;;;;;;-0.52;100.00;101100.09;5136032;27;20038;-91
2023/01/20 00:52:21;;;;;;;56.38;27.63;;;;;;;-0.51;100.00;101110.22;5134819;27;20026;-89
2023/01/20 00:54:46;;;;;;;59.80;29.67;;;;;;;-0.50;100.00;101101.75;5116400;27;20491;-90
2023/01/20 00:57:12;;;;;;;59.95;30.63;;;;;;;-0.67;100.00;101076.63;5135070;27;20416;-89
2023/01/20 00:59:37;;;;;;;61.90;30.95;;;;;;;-0.42;100.00;101116.88;5115768;27;20136;-91
2023/01/20 01:02:03;;;;;;;67.22;32.15;;;;;;;-0.42;100.00;101114.34;5135776;27;20027;-91
2023/01/20 01:04:28;;;;;;;67.68;31.58;;;;;;;-0.41;100.00;101129.53;5115616;27;20042;-91
2023/01/20 01:06:53;;;;;;;72.97;32.72;;;;;;;-0.50;100.00;101116.97;5134598;27;20474;-91
2023/01/20 01:09:20;;;;;;;69.90;32.92;;;;;;;-0.61;100.00;101094.28;5134611;27;20458;-90
2023/01/20 01:11:48;;;;;;;72.78;32.35;;;;;;;-0.39;100.00;101138.00;5117751;27;20474;-91
2023/01/20 01:14:16;;;;;;;72.20;34.08;;;;;;;-0.59;100.00;101106.94;5134211;27;20073;-90
2023/01/20 01:16:42;;;;;;;66.05;33.25;;;;;;;-0.48;100.00;101127.97;5116154;27;20488;-90
2023/01/20 01:19:07;;;;;;;73.80;34.08;;;;;;;-0.68;100.00;101090.16;5134128;27;20035;-91
2023/01/20 01:21:32;;;;;;;77.15;35.15;;;;;;;-0.66;100.00;101108.72;5134481;27;20035;-89
2023/01/20 01:23:58;;;;;;;72.10;33.67;;;;;;;-0.33;100.00;101159.88;5134367;27;20062;-91
2023/01/20 01:26:23;;;;;;;71.28;32.63;;;;;;;-0.31;100.00;101160.69;5133939;27;20081;-91
2023/01/20 01:28:49;;;;;;;69.18;31.63;;;;;;;-0.31;100.00;101159.00;5115786;27;20031;-87
2023/01/20 01:31:15;;;;;;;76.05;34.83;;;;;;;-0.30;100.00;101160.69;5133904;27;20091;-88
2023/01/20 01:33:41;;;;;;;73.30;33.78;;;;;;;-0.40;100.00;101143.91;5134270;27;20470;-90
2023/01/20 01:36:11;;;;;;;79.00;35.80;;;;;;;-0.33;100.00;101158.19;5133954;27;20041;-90
2023/01/20 01:38:36;;;;;;;75.80;33.72;;;;;;;-0.63;100.00;101120.53;5134409;27;20115;-91
2023/01/20 01:41:01;;;;;;;75.65;34.10;;;;;;;-0.31;100.00;101169.16;5133451;27;20498;-90
2023/01/20 01:43:33;;;;;;;77.80;34.17;;;;;;;-0.45;100.00;101138.06;5115105;28;20031;-92
2023/01/20 01:45:58;;;;;;;78.43;34.28;;;;;;;-0.54;100.00;101133.09;5133760;28;20059;-91
2023/01/20 01:48:27;;;;;;;75.70;34.53;;;;;;;-0.30;100.00;101165.75;5134693;28;20027;-88
2023/01/20 01:50:57;;;;;;;77.07;34.38;;;;;;;-0.32;100.00;101164.94;5134488;28;20030;-91
2023/01/20 01:53:25;;;;;;;77.28;33.45;;;;;;;-0.49;100.00;101136.44;5134542;28;20019;-91
2023/01/20 01:55:56;;;;;;;74.95;33.38;;;;;;;-0.49;100.00;101144.03;5134225;28;20447;-89
2023/01/20 01:58:28;;;;;;;78.15;34.45;;;;;;;-0.59;100.00;101128.09;5115131;28;20125;-90
2023/01/20 02:00:53;;;;;;;74.90;31.40;;;;;;;-0.51;100.00;101143.19;5133609;28;20055;-90
2023/01/20 02:03:21;;;;;;;80.55;33.47;;;;;;;-0.67;100.00;101112.13;5134573;28;20466;-81
2023/01/20 02:05:58;;;;;;;75.57;31.52;;;;;;;-0.52;100.00;101131.38;5133560;28;20027;-81
2023/01/20 02:08:24;;;;;;;81.45;33.13;;;;;;;-0.36;100.00;101165.84;5133407;28;20482;-81
2023/01/20 02:11:12;;;;;;;76.63;32.00;;;;;;;-0.70;100.00;101104.53;5134420;28;20106;-83
2023/01/20 02:13:38;;;;;;;79.60;32.05;;;;;;;-0.42;100.00;101165.91;5132794;28;20039;-83
2023/01/20 02:16:30;;;;;;;75.88;33.38;;;;;;;-0.41;100.00;101164.22;5133166;28;20106;-82
2023/01/20 02:19:08;;;;;;;74.88;31.27;;;;;;;-0.43;100.00;101158.31;5133174;28;20111;-84
2023/01/20 02:22:18;;;;;;;74.93;31.95;;;;;;;-0.42;100.00;101163.38;5133002;28;20385;-81
2023/01/20 02:28:23;;;;;;;73.80;31.90;;;;;;;-0.40;100.00;101165.88;5205366;22;20013;-82
2023/01/20 02:31:05;;;;;;;71.28;31.70;;;;;;;-0.56;100.00;101137.34;5134366;28;20424;-82
2023/01/20 02:33:37;;;;;;;73.88;31.02;;;;;;;-0.41;100.00;101165.06;5133407;28;20537;-82
2023/01/20 02:36:10;;;;;;;71.05;30.25;;;;;;;-0.60;100.00;101148.38;5133445;28;20054;-82
2023/01/20 02:38:43;;;;;;;72.40;31.15;;;;;;;-0.43;100.00;101164.25;5133566;28;20115;-80
2023/01/20 02:41:25;;;;;;;76.00;31.42;;;;;;;-0.43;100.00;101173.56;5132919;28;20027;-83
2023/01/20 02:43:53;;;;;;;73.53;30.88;;;;;;;-0.44;100.00;101172.72;5133394;28;20394;-82
2023/01/20 02:46:43;;;;;;;75.78;33.45;;;;;;;-0.60;100.00;101144.13;5133309;28;20386;-83
2023/01/20 02:49:40;;;;;;;75.25;32.10;;;;;;;-0.45;100.00;101168.50;5134082;27;20098;-84
2023/01/20 02:52:12;;;;;;;81.63;33.17;;;;;;;-0.48;100.00;101160.94;5094196;28;20044;-90
2023/01/20 02:54:40;;;;;;;72.32;29.50;;;;;;;-0.44;100.00;101170.19;5093947;28;20032;-82
2023/01/20 02:57:10;;;;;;;72.60;30.88;;;;;;;-0.75;100.00;101130.81;5094740;28;20048;-81
2023/01/20 02:59:40;;;;;;;74.70;29.55;;;;;;;-0.47;100.00;101177.00;5093738;28;20605;-82
2023/01/20 03:02:09;;;;;;;69.40;28.20;;;;;;;-0.46;100.00;101173.59;5093751;28;20535;-83
2023/01/20 03:04:50;;;;;;;71.03;30.60;;;;;;;-0.49;100.00;101166.88;5093713;28;20054;-82
2023/01/20 03:07:20;;;;;;;70.05;30.15;;;;;;;-0.46;100.00;101171.91;5093482;28;20055;-83
2023/01/20 03:09:49;;;;;;;62.30;28.17;;;;;;;-0.48;100.00;101181.22;5093204;28;20032;-83
2023/01/20 03:12:15;;;;;;;65.72;29.23;;;;;;;-0.49;100.00;101174.47;5093472;28;20028;-82
2023/01/20 03:14:40;;;;;;;63.60;27.30;;;;;;;-0.60;100.00;101158.53;5093248;28;20097;-82
2023/01/20 03:17:05;;;;;;;64.65;26.70;;;;;;;-0.52;100.00;101181.25;5093314;28;20028;-82
2023/01/20 03:19:31;;;;;;;68.25;27.80;;;;;;;-0.70;100.00;101154.41;5093273;28;20473;-83
2023/01/20 03:21:56;;;;;;;61.90;26.95;;;;;;;-0.55;100.00;101199.91;5093327;28;20034;-82
2023/01/20 03:24:23;;;;;;;67.95;27.27;;;;;;;-0.61;100.00;101177.97;5093229;28;20301;-82
2023/01/20 03:26:48;;;;;;;64.05;27.73;;;;;;;-0.54;100.00;101193.13;5093163;28;20024;-83
2023/01/20 03:29:14;;;;;;;62.40;26.67;;;;;;;-0.61;100.00;101183.03;5128122;27;20046;-82
2023/01/20 03:31:42;;;;;;;76.78;28.52;;;;;;;-0.55;100.00;101204.97;5136237;27;20035;-83
2023/01/20 03:34:12;;;;;;;67.25;28.38;;;;;;;-0.73;100.00;101172.22;5136105;27;20043;-83
2023/01/20 03:36:39;;;;;;;66.18;27.98;;;;;;;-0.87;100.00;101154.63;5136300;27;20034;-82
2023/01/20 03:39:05;;;;;;;72.30;28.50;;;;;;;-0.69;100.00;101174.72;5136007;27;20031;-82
2023/01/20 03:42:00;;;;;;;68.30;28.83;;;;;;;-0.54;100.00;101203.28;5117480;27;20050;-83
2023/01/20 03:44:33;;;;;;;67.25;28.02;;;;;;;-0.54;100.00;101204.13;5135804;27;20062;-82
2023/01/20 03:47:08;;;;;;;65.88;28.42;;;;;;;-0.54;100.00;101204.13;5135846;27;20478;-83
2023/01/20 03:49:47;;;;;;;74.20;29.15;;;;;;;-0.53;100.00;101198.19;5136237;27;20451;-82
2023/01/20 03:52:40;;;;;;;71.15;27.15;;;;;;;-0.51;100.00;101213.38;5135632;27;20462;-84
2023/01/20 03:55:13;;;;;;;69.82;28.10;;;;;;;-0.52;100.00;101206.63;5092752;28;20129;-86
2023/01/20 03:57:49;;;;;;;67.10;28.33;;;;;;;-0.57;100.00;101204.16;5076179;28;20471;-91
2023/01/20 04:00:16;;;;;;;65.68;29.48;;;;;;;-0.51;100.00;101214.22;5092886;28;20419;-92
2023/01/20 04:02:42;;;;;;;67.45;27.65;;;;;;;-0.51;100.00;101218.47;5093322;28;20039;-91
2023/01/20 04:05:09;;;;;;;73.97;28.50;;;;;;;-0.62;100.00;101193.22;5092943;28;20028;-90
2023/01/20 04:07:38;;;;;;;67.88;28.38;;;;;;;-0.52;100.00;101207.47;5093172;28;20065;-91
2023/01/20 04:10:09;;;;;;;69.18;28.52;;;;;;;-0.66;100.00;101194.13;5093287;28;20074;-88
2023/01/20 04:12:35;;;;;;;65.78;26.52;;;;;;;-0.73;100.00;101178.13;5093139;28;20047;-88
2023/01/20 04:15:00;;;;;;;71.38;29.10;;;;;;;-0.87;100.00;101152.94;5075566;28;20020;-89
2023/01/20 04:17:29;;;;;;;67.00;27.33;;;;;;;-0.51;100.00;101214.22;5094100;28;20476;-90
2023/01/20 04:19:56;;;;;;;65.22;28.15;;;;;;;-0.73;100.00;101180.66;5092013;28;20032;-90
2023/01/20 04:22:47;;;;;;;74.45;30.10;;;;;;;-0.69;100.00;101186.53;5092706;28;20387;-90
2023/01/20 04:25:19;;;;;;;69.32;30.00;;;;;;;-0.53;100.00;101210.03;5090853;28;20056;-91
2023/01/20 04:27:50;;;;;;;71.18;29.75;;;;;;;-0.83;100.00;101166.41;5094022;28;20038;-91
2023/01/20 04:30:16;;;;;;;74.15;30.58;;;;;;;-1.48;100.00;101066.53;5091789;28;20048;-90
2023/01/20 04:32:50;;;;;;;70.40;28.92;;;;;;;-1.85;100.00;100993.50;5109618;28;20054;-85
2023/01/20 04:35:18;;;;;;;71.38;29.85;;;;;;;-1.24;100.00;101088.28;5114820;28;20098;-91
2023/01/20 04:38:24;;;;;;;80.65;31.52;;;;;;;-0.51;100.00;101211.69;5115004;28;20016;-90
2023/01/20 04:40:58;;;;;;;72.93;30.35;;;;;;;-1.80;100.00;101011.97;5115260;28;20466;-88
2023/01/20 04:43:29;;;;;;;68.82;29.83;;;;;;;-1.79;100.00;101020.41;5115047;28;20111;-87
2023/01/20 04:45:55;;;;;;;70.78;29.42;;;;;;;-0.56;100.00;101223.59;5114567;28;20031;-88
2023/01/20 04:48:20;;;;;;;71.25;29.98;;;;;;;-0.56;100.00;101222.75;5112896;28;20154;-91
2023/01/20 04:50:46;;;;;;;73.53;30.08;;;;;;;-0.56;100.00;101222.75;5114815;28;20028;-91
2023/01/20 04:53:15;;;;;;;74.85;30.33;;;;;;;-0.56;100.00;101222.75;5112417;28;20027;-90
2023/01/20 04:55:41;;;;;;;75.43;32.30;;;;;;;-0.57;100.00;101224.44;5114316;28;20034;-89
2023/01/20 04:58:07;;;;;;;70.35;29.83;;;;;;;-1.29;100.00;101123.75;5114931;28;20023;-91
2023/01/20 05:00:33;;;;;;;67.15;28.40;;;;;;;-0.63;100.00;101232.13;5114646;28;20027;-90
2023/01/20 05:02:58;;;;;;;66.18;30.33;;;;;;;-0.96;100.00;101180.91;5114477;28;20027;-91
2023/01/20 05:05:24;;;;;;;70.70;30.13;;;;;;;-1.05;100.00;101165.78;5114691;28;20023;-90
2023/01/20 05:07:52;;;;;;;69.22;29.63;;;;;;;-0.82;100.00;101206.09;5112825;28;20344;-91
2023/01/20 05:10:18;;;;;;;68.28;29.20;;;;;;;-0.66;100.00;101222.84;5114034;28;20012;-89
2023/01/20 05:12:43;;;;;;;63.50;28.60;;;;;;;-0.87;100.00;101197.72;5113416;28;20023;-90
2023/01/20 05:15:18;;;;;;;69.25;28.55;;;;;;;-0.69;100.00;101227.97;5112212;28;20040;-90
2023/01/20 05:17:43;;;;;;;63.05;28.02;;;;;;;-0.71;100.00;101241.50;5114025;28;20020;-89
2023/01/20 05:20:09;;;;;;;60.63;28.70;;;;;;;-0.87;100.00;101218.00;5113070;28;20077;-90
2023/01/20 05:22:35;;;;;;;68.38;29.95;;;;;;;-0.79;100.00;101233.13;5113610;28;20032;-88
2023/01/20 05:25:00;;;;;;;74.43;30.25;;;;;;;-0.80;100.00;101237.34;5113799;28;20028;-87
2023/01/20 05:27:25;;;;;;;70.35;29.75;;;;;;;-0.71;100.00;101254.16;5113710;28;20027;-90
2023/01/20 05:29:51;;;;;;;61.65;27.38;;;;;;;-0.73;100.00;101249.13;5113347;28;20051;-92
2023/01/20 05:32:16;;;;;;;63.58;27.52;;;;;;;-0.96;100.00;101208.78;5113338;28;20028;-88
2023/01/20 05:34:42;;;;;;;71.15;27.90;;;;;;;-0.90;100.00;101213.78;5113172;28;20031;-91
2023/01/20 05:37:07;;;;;;;66.63;29.65;;;;;;;-0.92;100.00;101212.13;5113112;28;20031;-91
2023/01/20 05:39:32;;;;;;;68.15;31.15;;;;;;;-0.66;100.00;101249.91;5113627;28;20055;-88
2023/01/20 05:41:58;;;;;;;70.93;31.45;;;;;;;-0.67;100.00;101246.53;5113401;28;20476;-90
2023/01/20 05:44:23;;;;;;;72.65;28.98;;;;;;;-0.95;100.00;101192.72;5113142;28;20424;-87
2023/01/20 05:46:48;;;;;;;68.20;30.15;;;;;;;-0.64;100.00;101253.25;5112918;28;20027;-90
2023/01/20 05:49:14;;;;;;;72.32;31.02;;;;;;;-0.68;100.00;101244.84;5113811;28;20024;-89
2023/01/20 05:51:39;;;;;;;71.57;31.98;;;;;;;-0.92;100.00;101207.06;5113588;28;20031;-91
2023/01/20 05:54:05;;;;;;;83.03;34.17;;;;;;;-0.90;100.00;101211.25;5113349;28;20020;-91
2023/01/20 05:56:30;;;;;;;72.07;33.55;;;;;;;-0.78;100.00;101233.13;5113628;28;20027;-92
2023/01/20 05:58:55;;;;;;;71.20;31.08;;;;;;;-0.71;100.00;101251.63;5113223;28;20028;-90
2023/01/20 06:01:21;;;;;;;68.47;30.38;;;;;;;-0.74;100.00;101252.50;5113044;28;20039;-90
2023/01/20 06:03:46;;;;;;;66.53;30.15;;;;;;;-0.73;100.00;101254.19;5111983;28;20020;-87
2023/01/20 06:06:17;;;;;;;68.88;29.13;;;;;;;-0.94;100.00;101219.75;5112866;28;20032;-89
2023/01/20 06:08:43;;;;;;;68.28;30.02;;;;;;;-1.15;100.00;101184.47;5113476;28;20438;-88
2023/01/20 06:11:09;;;;;;;69.82;30.67;;;;;;;-1.05;100.00;101208.03;5113238;28;20490;-91
2023/01/20 06:13:34;;;;;;;73.18;28.75;;;;;;;-0.71;100.00;101266.84;5128563;22;20047;-88
2023/01/20 06:16:00;;;;;;;68.70;28.67;;;;;;;-1.06;100.00;101204.66;5133404;28;20484;-90
2023/01/20 06:18:26;;;;;;;67.32;29.00;;;;;;;-0.76;100.00;101248.31;5133590;28;20499;-87
2023/01/20 06:20:55;;;;;;;74.53;30.83;;;;;;;-0.90;100.00;101220.53;5115007;28;20205;-86
2023/01/20 06:23:20;;;;;;;68.68;29.92;;;;;;;-0.90;100.00;101223.91;5172721;22;20051;-88
2023/01/20 06:25:45;;;;;;;69.05;27.90;;;;;;;-0.62;100.00;101265.06;5097864;28;20020;-89
2023/01/20 06:28:10;;;;;;;67.05;27.45;;;;;;;-0.62;100.00;101254.91;5116848;28;20037;-89
2023/01/20 06:30:36;;;;;;;68.55;28.15;;;;;;;-0.62;100.00;101260.00;5116597;28;20027;-88
2023/01/20 06:36:57;;;;;;;69.80;31.67;;;;;;;-0.58;100.00;101258.28;5632353;22;20051;-86
2023/01/20 07:06:17;;;;;;;65.43;29.48;;;;;;;-0.64;100.00;101245.66;5166919;22;20446;-86
2023/01/20 07:08:43;;;;;;;63.40;28.38;;;;;;;-0.82;100.00;101218.78;5095461;28;20259;-87
2023/01/20 07:11:12;;;;;;;63.60;30.33;;;;;;;-0.54;100.00;101269.22;5095782;28;20035;-90
2023/01/20 07:13:37;;;;;;;67.00;29.15;;;;;;;-0.56;100.00;101274.31;5080790;28;20036;-88
2023/01/20 07:16:03;;;;;;;69.90;29.25;;;;;;;-0.81;100.00;101242.44;5096136;28;20069;-85
2023/01/20 07:18:28;;;;;;;65.28;28.88;;;;;;;-0.95;100.00;101213.00;5097530;28;20491;-88
2023/01/20 07:20:54;;;;;;;64.43;28.15;;;;;;;-0.59;100.00;101276.88;5096243;28;20035;-89
2023/01/20 07:23:36;;;;;;;70.20;29.58;;;;;;;-0.56;100.00;101292.09;5461013;22;20047;-87
2023/01/20 07:26:23;;;;;;;65.22;29.13;;;;;;;-1.36;100.00;101156.78;5173741;22;21378;-90
2023/01/20 07:28:51;;;;;;;67.18;28.98;;;;;;;-1.44;100.00;101141.66;5118393;27;20057;-90
2023/01/20 07:31:22;;;;;;;66.53;30.02;;;;;;;-0.53;100.00;101291.19;5119311;28;20015;-89
2023/01/20 07:33:55;;;;;;;64.28;27.90;;;;;;;-1.78;100.00;101086.22;5116456;28;20541;-88
2023/01/20 07:36:23;;;;;;;61.42;26.65;;;;;;;-1.78;100.00;101092.97;5119877;28;20111;-88
2023/01/20 07:38:49;;;;;;;61.90;26.38;;;;;;;-0.75;100.00;101257.59;5122328;28;20107;-88
2023/01/20 07:41:21;;;;;;;65.10;27.42;;;;;;;-1.52;100.00;101139.19;5099960;28;20486;-87
2023/01/20 07:43:58;;;;;;;60.72;27.30;;;;;;;-1.29;100.00;101176.97;5117664;28;20031;-88
2023/01/20 07:46:33;;;;;;;66.00;27.83;;;;;;;-1.74;100.00;101097.16;5116443;28;20455;-90
2023/01/20 07:49:01;;;;;;;63.15;26.98;;;;;;;-1.34;100.00;101162.69;5118381;28;20141;-88
2023/01/20 07:51:38;;;;;;;60.00;26.85;;;;;;;-0.66;100.00;101271.03;5116208;28;20042;-88
2023/01/20 07:54:04;;;;;;;59.70;25.55;;;;;;;-0.42;100.00;101297.00;5115037;28;20020;-88
2023/01/20 07:56:29;;;;;;;58.92;27.38;;;;;;;-0.52;100.00;101293.72;5117404;28;20031;-86
2023/01/20 07:58:56;;;;;;;59.60;25.48;;;;;;;-0.41;100.00;101312.22;5105407;28;20414;-88
2023/01/20 08:01:24;;;;;;;53.58;25.80;;;;;;;-0.90;100.00;101235.75;5094799;28;20032;-86
2023/01/20 08:03:53;;;;;;;53.90;25.88;;;;;;;-1.93;100.00;101065.25;5093368;28;20030;-87
2023/01/20 08:06:30;;;;;;;57.35;26.25;;;;;;;-1.73;100.00;101103.91;5095691;28;20023;-90
2023/01/20 08:08:58;;;;;;;55.58;24.52;;;;;;;-1.77;100.00;101089.59;5094578;28;20028;-86
2023/01/20 08:11:23;;;;;;;54.53;25.98;;;;;;;-1.23;100.00;101181.16;5094398;28;20036;-84
2023/01/20 08:13:52;;;;;;;57.42;26.63;;;;;;;-0.43;100.00;101308.00;5092480;28;20131;-83
2023/01/20 08:16:18;;;;;;;56.55;26.75;;;;;;;-0.47;100.00;101302.13;5094164;28;20073;-85
2023/01/20 08:18:52;;;;;;;58.95;25.77;;;;;;;-0.44;100.00;101317.31;5092459;28;20467;-87
2023/01/20 08:21:29;;;;;;;59.00;26.40;;;;;;;-0.46;100.00;101313.13;5093082;28;20024;-86
2023/01/20 08:23:56;;;;;;;57.60;25.50;;;;;;;-0.46;100.00;101313.97;5094067;28;20020;-84
2023/01/20 08:26:27;;;;;;;60.00;26.60;;;;;;;-1.57;100.00;101148.53;5094087;28;20040;-90
2023/01/20 08:28:52;;;;;;;54.53;24.63;;;;;;;-0.45;100.00;101323.25;5092838;28;20077;-89
2023/01/20 08:31:49;;;;;;;55.67;25.08;;;;;;;-0.43;100.00;101324.06;5093789;28;20467;-86
2023/01/20 08:34:33;;;;;;;55.70;25.75;;;;;;;-0.50;100.00;101319.91;5093603;28;20035;-87
2023/01/20 08:40:35;;;;;;;55.70;23.67;;;;;;;-1.69;100.00;101130.88;5093530;28;20128;-84
2023/01/20 08:43:03;;;;;;;52.35;25.00;;;;;;;-1.68;100.00;101142.69;5092722;28;20495;-85
2023/01/20 08:45:28;;;;;;;49.55;24.55;;;;;;;-0.84;100.00;101278.81;5092460;28;20020;-85
2023/01/20 08:48:12;;;;;;;59.55;27.60;;;;;;;-1.46;100.00;101181.34;5340700;22;20444;-81
2023/01/20 08:50:38;;;;;;;55.03;25.40;;;;;;;-0.92;100.00;101272.97;5112588;28;20048;-87
2023/01/20 08:53:09;;;;;;;56.35;25.15;;;;;;;-1.23;100.00;101230.13;5095270;28;20043;-87
2023/01/20 08:55:35;;;;;;;;;;;;;;;-0.43;100.00;101359.59;5114273;28;20387;-83
2023/01/20 08:58:17;;;;;;;55.33;25.50;;;;;;;-1.69;100.00;101146.06;5113964;28;19912;-84
2023/01/20 09:00:52;;;;;;;55.85;24.65;;;;;;;-0.62;100.00;101323.41;5113481;28;20043;-86
2023/01/20 09:03:18;;;;;;;51.60;24.95;;;;;;;-1.48;100.00;101181.34;5113919;28;20031;-86
2023/01/20 09:05:50;;;;;;;53.50;24.95;;;;;;;-0.37;100.00;101354.47;5113633;28;20024;-84
2023/01/20 09:08:16;;;;;;;51.47;24.55;;;;;;;-0.36;100.00;101356.16;5113403;28;20023;-87
2023/01/20 09:10:42;;;;;;;50.90;24.77;;;;;;;-0.51;100.00;101323.31;5127956;22;20051;-85
2023/01/20 09:13:09;;;;;;;46.95;22.10;;;;;;;-0.67;100.00;101289.66;5113411;28;20028;-86
2023/01/20 09:15:50;;;;;;;47.50;23.65;;;;;;;-0.55;100.00;101310.69;5113059;28;20111;-83
2023/01/20 09:18:15;;;;;;;44.80;21.73;;;;;;;-0.57;100.00;101315.75;5113507;28;20039;-84
2023/01/20 09:20:41;;;;;;;43.72;22.40;;;;;;;-0.49;100.00;101328.34;5113193;28;20027;-84
2023/01/20 09:23:06;;;;;;;42.63;21.17;;;;;;;-0.43;100.00;101329.16;5113368;28;20100;-85
2023/01/20 09:25:31;;;;;;;43.42;21.58;;;;;;;-0.34;100.00;101356.97;5118847;22;20043;-85
2023/01/20 09:28:00;;;;;;;44.70;21.85;;;;;;;-0.33;100.00;101358.66;5113113;28;20562;-85
2023/01/20 09:30:25;;;;;;;44.90;21.70;;;;;;;-0.52;100.00;101316.53;5113085;28;20098;-84
2023/01/20 09:32:52;;;;;;;45.20;21.63;;;;;;;-0.27;100.00;101354.38;5113280;28;20054;-86
2023/01/20 09:35:18;;;;;;;42.08;20.30;;;;;;;-0.30;100.00;101361.16;5111328;28;20041;-84
2023/01/20 09:43:53;;;;;;;47.00;21.92;;;;;;;-0.60;100.00;101291.25;5113323;28;20100;-84
2023/01/20 09:46:43;;;;;;;38.78;20.30;;;;;;;-0.22;100.00;101355.16;5113163;28;20058;-86
2023/01/20 09:55:27;;;;;;;42.80;21.48;;;;;;;-0.23;100.00;101344.16;5113102;28;20489;-83
2023/01/20 09:58:03;;;;;;;40.92;20.98;;;;;;;-0.25;100.00;101338.28;5113030;28;20024;-84
2023/01/20 10:00:32;;;;;;;41.33;20.88;;;;;;;-0.46;100.00;101306.34;5117198;28;20027;-82
2023/01/20 10:03:10;;;;;;;41.03;21.50;;;;;;;-0.07;100.00;101360.09;5117337;28;20102;-86
2023/01/20 10:05:41;;;;;;;40.13;19.50;;;;;;;-0.27;100.00;101318.84;5116762;28;20031;-84
2023/01/20 10:08:29;;;;;;;41.45;21.55;;;;;;;-0.12;100.00;101349.13;5117114;28;20072;-86
2023/01/20 10:11:04;;;;;;;42.30;21.33;;;;;;;-0.37;100.00;101303.72;5116875;28;20020;-84
2023/01/20 10:13:46;;;;;;;40.38;21.30;;;;;;;-0.38;100.00;101307.13;5116899;28;20062;-85
2023/01/20 10:16:17;;;;;;;;;;;;;;;-0.04;100.00;101358.34;5098931;28;20505;-85
2023/01/20 10:18:50;;;;;;;35.35;18.73;;;;;;;-0.26;100.00;101329.00;5116492;28;19961;-83
2023/01/20 10:21:39;;;;;;;37.83;18.90;;;;;;;-0.09;100.00;101360.13;5116753;28;20031;-86
2023/01/20 10:24:27;;;;;;;40.45;20.10;;;;;;;-0.12;100.00;101362.66;5054228;28;20484;-85
2023/01/20 10:26:59;;;;;;;37.20;19.98;;;;;;;-0.16;100.00;101362.72;5053921;28;20488;-85
2023/01/20 10:29:31;;;;;;;35.67;20.00;;;;;;;-0.14;100.00;101359.31;5037017;28;20045;-88
2023/01/20 10:32:00;;;;;;;37.97;19.52;;;;;;;-0.22;100.00;101350.09;5053750;28;20063;-84
2023/01/20 10:34:32;;;;;;;35.30;17.52;;;;;;;-0.13;100.00;101363.53;5053675;28;20040;-84
2023/01/20 10:37:05;;;;;;;34.65;18.88;;;;;;;-0.94;100.00;101234.13;5053632;28;20028;-77
2023/01/20 10:39:53;;;;;;;33.45;18.05;;;;;;;-1.30;100.00;101166.84;5036385;28;20470;-85
2023/01/20 10:42:54;;;;;;;36.03;18.80;;;;;;;-0.03;100.00;101364.28;5420462;22;20132;-85
2023/01/20 10:45:46;;;;;;;34.08;17.20;;;;;;;-0.01;100.00;101367.63;5095944;28;20403;-84
2023/01/20 10:48:31;;;;;;;;;;;;;;;0.04;100.00;101372.69;5095110;28;20094;-81
2023/01/20 10:51:22;;;;;;;30.60;16.60;;;;;;;0.05;100.00;101367.56;5095584;28;20386;-81
2023/01/20 10:54:02;;;;;;;27.92;16.20;;;;;;;-0.20;100.00;101323.81;5077663;28;20145;-80
2023/01/20 10:56:36;;;;;;;32.75;17.13;;;;;;;0.13;100.00;101370.88;5096013;28;20024;-81
2023/01/20 10:59:08;;;;;;;34.65;18.60;;;;;;;-0.21;100.00;101308.63;5095809;28;20020;-82
2023/01/20 11:01:35;;;;;;;29.67;16.60;;;;;;;0.20;100.00;101376.72;5095523;28;20081;-82
2023/01/20 11:04:00;;;;;;;29.40;16.60;;;;;;;0.25;100.00;101375.81;5095442;28;20024;-81
2023/01/20 11:06:26;;;;;;;28.60;17.42;;;;;;;0.10;100.00;101342.13;5095335;28;20039;-80
2023/01/20 11:08:52;;;;;;;25.33;14.77;;;;;;;0.24;100.00;101371.59;5095314;28;20028;-81
2023/01/20 11:11:21;;;;;;;24.98;14.50;;;;;;;0.26;100.00;101374.94;5094657;28;20032;-80
2023/01/20 11:13:47;;;;;;;25.10;14.18;;;;;;;0.16;100.00;101365.75;5095508;28;20028;-80
2023/01/20 11:16:19;;;;;;;25.17;14.65;;;;;;;0.07;100.00;101348.06;5095731;28;20028;-80
2023/01/20 11:18:54;;;;;;;;;;;;;;;0.36;100.00;101385.00;5095839;28;20423;-79
2023/01/20 11:21:23;;;;;;;24.75;13.20;;;;;;;0.08;100.00;101338.75;5095072;28;19916;-81
2023/01/20 11:23:56;;;;;;;25.90;14.73;;;;;;;0.21;100.00;101361.47;5095424;28;20024;-82
2023/01/20 11:26:25;;;;;;;32.92;16.23;;;;;;;0.23;100.00;101369.91;5095582;28;20068;-80
2023/01/20 11:29:10;;;;;;;29.15;15.27;;;;;;;0.03;100.00;101336.28;5095170;28;20154;-81
2023/01/20 11:31:41;;;;;;;28.05;15.73;;;;;;;0.12;100.00;101343.81;5095275;28;20437;-80
2023/01/20 11:34:21;;;;;;;28.92;16.30;;;;;;;0.47;100.00;101391.63;5095155;28;20119;-80
2023/01/20 11:36:47;;;;;;;27.58;16.13;;;;;;;0.51;100.00;101395.81;5095131;28;20024;-80
2023/01/20 11:39:25;;;;;;;33.17;18.60;;;;;;;0.57;100.00;101393.19;5095114;28;20043;-81
2023/01/20 11:42:11;;;;;;;29.88;17.23;;;;;;;0.51;100.00;101375.50;5094874;28;20379;-80
2023/01/20 11:44:44;;;;;;;31.75;17.05;;;;;;;0.45;100.00;101357.78;5101481;28;20046;-80
2023/01/20 11:47:33;;;;;;;27.27;14.50;;;;;;;0.55;100.00;101355.97;5102024;28;20451;-78
2023/01/20 11:50:07;;;;;;;24.67;14.25;;;;;;;0.79;100.00;101381.06;5105775;28;20042;-77
2023/01/20 11:52:34;;;;;;;25.65;14.02;;;;;;;0.90;100.00;101378.38;5115269;28;20379;-79
2023/01/20 11:55:11;;;;;;;27.35;16.17;;;;;;;1.01;100.00;101390.91;5114868;28;20077;-80
2023/01/20 11:57:48;;;;;;;27.92;15.82;;;;;;;0.52;100.00;101292.47;5115086;28;20019;-77
2023/01/20 12:00:19;;;;;;;26.55;16.25;;;;;;;1.15;100.00;101391.53;5114986;28;20030;-79
2023/01/20 12:02:57;;;;;;;28.27;15.60;;;;;;;1.27;100.00;101388.81;5115065;28;20020;-80
2023/01/20 12:05:33;;;;;;;26.30;14.80;;;;;;;1.32;100.00;101378.56;5114835;28;20106;-80
2023/01/20 12:08:01;;;;;;;28.02;15.38;;;;;;;1.47;100.00;101385.09;5114813;28;20024;-80
2023/01/20 12:10:31;;;;;;;25.00;15.35;;;;;;;1.36;100.00;101363.22;5114999;28;20098;-81